Keaau, HI

12:59 AM HST on September 16, 2014 (GMT -1000)
Lalakea St - Hawaiian Shores | Change Station
CLOSE
Current Station
Personal Weather Station
Location: Pahoa, HI
Elevation: 272 ft
Nearby Weather Stations
Active Advisory: High Surf Advisory Active Notice: Record Report

Elev 272 ft 19.54 °N, 154.91 °W | Updated 11 seconds ago

Partly Cloudy
Partly Cloudy
71.2 °F
Feels Like 71.2 °F
N
0.0
Wind Variable Wind from SW
Gusts 0.0 mph

Today
High -- | Low -- °F
--% Chance of Precip.
Yesterday
High -- | Low -- °F
Precip. -- in
6:07 AM 6:21 PM
Waning Gibbous, 46% visible
Pressure 29.94 in
Visibility 10.0 miles
Clouds Few 3000 ft
Dew Point 71 °F
Humidity 100%
Rainfall 0.00 in
Snow Depth Not available.
UV 0 out of 12
Pollen Not available.
PM2.5 Good
Flu Activity Not available.
METAR PHTO 161053Z 00000KT 10SM FEW030 23/20 A2994 RMK AO2 SLP136 T02330200

More Conditions Fewer Conditions

Pressure 29.94 in
Visibility 10.0 miles
Clouds Few 3000 ft
Dew Point 71 °F
Humidity 100%
Rainfall 0.00 in
Snow Depth Not available.
UV 0 out of 12
Pollen Not available.
PM2.5 Good
Flu Activity Not available.
METAR PHTO 161053Z 00000KT 10SM FEW030 23/20 A2994 RMK AO2 SLP136 T02330200

More Conditions Fewer Conditions

10-Day Weather Forecast

Almanac

Astronomy

Sep. 16, 2014 Rise Set
Actual Time 6:07 AM HST 6:21 PM HST
Civil Twilight 5:45 AM HST 6:43 PM HST
Nautical Twilight 5:19 AM HST 7:08 PM HST
Astronomical Twilight 4:54 AM HST 7:34 PM HST
Moon 12:00 AM HST 1:20 PM HST
Length of Visible Light 12h 57m
Length of Day
12h 13m
Tomorrow will be 1m 6s shorter.
Waning Gibbous, 46% of the Moon is Illuminated
Today
Waning Gibbous
Sep 24
New
Oct 1
First Quarter
Oct 8
Full
Oct 15
Last Quarter

Today's Extremes

State Highs State Lows

Community

WunderPhotos

Upload Photos

1,753,720 photos uploaded!

WunderBlogs® & News

Nearby

Air Quality

  Air Quality AQ Index Pollutant
Yesterday Good
PM2.5
Current Good
PM2.5

Snow Depth

Station Depth Elevation
No new snow has been reported.

Earthquake Activity

City Distance Mag. Time & Date
No recent earthquake activity has been reported nearby.
Minimum magnitude displayed is 2.5.

Coastal Water Temperatures

Place Temperature
No Stations Reporting

Nearby Weather Stations